sensor_id;sensor_type;location;lat;lon;timestamp;P1;durP1;ratioP1;P2;durP2;ratioP2
1344;SDS011;15375;48.540;9.268;2023-03-01T13:29:30;20.00;;;13.50;;
1344;SDS011;15375;48.540;9.268;2023-03-01T13:32:26;21.37;;;14.87;;
1344;SDS011;15375;48.540;9.268;2023-03-01T13:35:00;21.50;;;14.50;;
1344;SDS011;15375;48.540;9.268;2023-03-01T13:37:46;22.47;;;14.77;;
1344;SDS011;15375;48.540;9.268;2023-03-01T13:42:46;19.80;;;12.97;;
1344;SDS011;15375;48.540;9.268;2023-03-01T13:45:18;19.40;;;13.63;;
1344;SDS011;15375;48.540;9.268;2023-03-01T13:48:02;20.70;;;14.47;;
1344;SDS011;15375;48.540;9.268;2023-03-01T13:50:33;25.03;;;15.40;;
1344;SDS011;15375;48.540;9.268;2023-03-01T13:53:11;19.70;;;13.97;;
1344;SDS011;15375;48.540;9.268;2023-03-01T13:55:44;18.63;;;12.87;;
1344;SDS011;15375;48.540;9.268;2023-03-01T13:58:15;22.33;;;14.70;;
1344;SDS011;15375;48.540;9.268;2023-03-01T14:01:00;17.10;;;13.20;;
1344;SDS011;15375;48.540;9.268;2023-03-01T14:03:28;18.73;;;14.40;;
1344;SDS011;15375;48.540;9.268;2023-03-01T14:06:00;15.53;;;13.40;;
1344;SDS011;15375;48.540;9.268;2023-03-01T14:08:28;18.33;;;13.10;;
1344;SDS011;15375;48.540;9.268;2023-03-01T14:14:01;20.10;;;14.33;;
1344;SDS011;15375;48.540;9.268;2023-03-01T14:16:55;18.83;;;14.87;;
1344;SDS011;15375;48.540;9.268;2023-03-01T14:19:24;15.87;;;12.83;;
1344;SDS011;15375;48.540;9.268;2023-03-01T14:24:36;22.10;;;14.57;;
1344;SDS011;15375;48.540;9.268;2023-03-01T14:27:09;20.30;;;14.17;;
1344;SDS011;15375;48.540;9.268;2023-03-01T14:29:39;20.17;;;14.40;;
1344;SDS011;15375;48.540;9.268;2023-03-01T14:32:12;18.10;;;11.67;;
1344;SDS011;15375;48.540;9.268;2023-03-01T14:34:45;20.30;;;13.50;;
1344;SDS011;15375;48.540;9.268;2023-03-01T14:37:28;21.50;;;13.37;;
1344;SDS011;15375;48.540;9.268;2023-03-01T14:39:58;17.07;;;13.40;;
1344;SDS011;15375;48.540;9.268;2023-03-01T14:42:27;19.23;;;13.87;;
1344;SDS011;15375;48.540;9.268;2023-03-01T14:44:56;17.63;;;12.77;;
1344;SDS011;15375;48.540;9.268;2023-03-01T14:47:26;19.17;;;12.83;;
1344;SDS011;15375;48.540;9.268;2023-03-01T14:49:57;20.00;;;13.50;;
1344;SDS011;15375;48.540;9.268;2023-03-01T14:52:42;23.87;;;14.50;;
1344;SDS011;15375;48.540;9.268;2023-03-01T14:55:15;18.27;;;12.70;;
1344;SDS011;15375;48.540;9.268;2023-03-01T14:57:49;18.03;;;12.00;;
1344;SDS011;15375;48.540;9.268;2023-03-01T15:00:18;20.50;;;13.23;;
1344;SDS011;15375;48.540;9.268;2023-03-01T15:02:47;18.60;;;13.13;;
1344;SDS011;15375;48.540;9.268;2023-03-01T15:05:24;17.10;;;13.20;;
1344;SDS011;15375;48.540;9.268;2023-03-01T15:07:53;23.90;;;14.10;;
1344;SDS011;15375;48.540;9.268;2023-03-01T15:10:21;21.60;;;14.57;;
1344;SDS011;15375;48.540;9.268;2023-03-01T15:12:48;26.17;;;14.97;;
1344;SDS011;15375;48.540;9.268;2023-03-01T15:17:55;16.37;;;12.10;;
1344;SDS011;15375;48.540;9.268;2023-03-01T15:20:23;17.57;;;12.30;;
1344;SDS011;15375;48.540;9.268;2023-03-01T15:22:52;18.03;;;12.13;;
1344;SDS011;15375;48.540;9.268;2023-03-01T15:25:21;18.57;;;13.77;;
1344;SDS011;15375;48.540;9.268;2023-03-01T15:27:50;19.37;;;13.30;;
1344;SDS011;15375;48.540;9.268;2023-03-01T15:30:24;20.10;;;14.43;;
1344;SDS011;15375;48.540;9.268;2023-03-01T15:35:52;15.57;;;11.83;;
1344;SDS011;15375;48.540;9.268;2023-03-01T15:38:24;22.33;;;13.17;;
1344;SDS011;15375;48.540;9.268;2023-03-01T15:40:53;25.27;;;16.03;;
1344;SDS011;15375;48.540;9.268;2023-03-01T15:46:02;15.37;;;10.67;;
1344;SDS011;15375;48.540;9.268;2023-03-01T15:48:29;20.13;;;13.20;;
1344;SDS011;15375;48.540;9.268;2023-03-01T15:50:55;19.87;;;14.80;;
1344;SDS011;15375;48.540;9.268;2023-03-01T15:53:23;21.13;;;13.47;;
1344;SDS011;15375;48.540;9.268;2023-03-01T15:55:49;18.60;;;12.93;;
1344;SDS011;15375;48.540;9.268;2023-03-01T16:00:45;22.20;;;13.60;;
1344;SDS011;15375;48.540;9.268;2023-03-01T16:03:13;19.63;;;14.30;;
1344;SDS011;15375;48.540;9.268;2023-03-01T16:05:46;18.73;;;12.30;;
1344;SDS011;15375;48.540;9.268;2023-03-01T16:08:12;19.80;;;13.00;;
1344;SDS011;15375;48.540;9.268;2023-03-01T16:10:38;17.23;;;12.93;;
1344;SDS011;15375;48.540;9.268;2023-03-01T16:13:05;17.33;;;11.60;;
1344;SDS011;15375;48.540;9.268;2023-03-01T16:15:31;17.77;;;13.23;;
1344;SDS011;15375;48.540;9.268;2023-03-01T16:17:59;12.00;;;10.30;;
1344;SDS011;15375;48.540;9.268;2023-03-01T16:20:25;19.00;;;12.03;;
1344;SDS011;15375;48.540;9.268;2023-03-01T16:22:52;12.70;;;8.67;;
1344;SDS011;15375;48.540;9.268;2023-03-01T16:25:18;16.60;;;12.53;;
1344;SDS011;15375;48.540;9.268;2023-03-01T16:27:45;20.40;;;13.10;;
1344;SDS011;15375;48.540;9.268;2023-03-01T16:30:12;16.33;;;11.97;;
1344;SDS011;15375;48.540;9.268;2023-03-01T16:32:43;16.47;;;12.37;;
1344;SDS011;15375;48.540;9.268;2023-03-01T16:35:11;19.47;;;13.63;;
1344;SDS011;15375;48.540;9.268;2023-03-01T16:37:38;17.57;;;11.37;;
1344;SDS011;15375;48.540;9.268;2023-03-01T16:40:05;18.43;;;11.50;;
1344;SDS011;15375;48.540;9.268;2023-03-01T16:42:40;17.47;;;12.20;;
1344;SDS011;15375;48.540;9.268;2023-03-01T16:45:06;20.17;;;11.30;;
1344;SDS011;15375;48.540;9.268;2023-03-01T16:47:32;19.73;;;13.90;;
1344;SDS011;15375;48.540;9.268;2023-03-01T16:49:58;18.27;;;12.43;;
1344;SDS011;15375;48.540;9.268;2023-03-01T16:52:24;16.03;;;11.53;;
1344;SDS011;15375;48.540;9.268;2023-03-01T16:54:49;21.23;;;13.83;;
1344;SDS011;15375;48.540;9.268;2023-03-01T16:57:14;18.80;;;11.97;;
1344;SDS011;15375;48.540;9.268;2023-03-01T16:59:40;20.40;;;12.70;;
1344;SDS011;15375;48.540;9.268;2023-03-01T17:02:08;17.63;;;12.50;;
1344;SDS011;15375;48.540;9.268;2023-03-01T17:04:36;20.87;;;12.93;;
1344;SDS011;15375;48.540;9.268;2023-03-01T17:07:02;20.07;;;13.07;;
1344;SDS011;15375;48.540;9.268;2023-03-01T17:09:27;19.10;;;13.43;;
1344;SDS011;15375;48.540;9.268;2023-03-01T17:11:53;20.00;;;14.00;;
1344;SDS011;15375;48.540;9.268;2023-03-01T17:14:19;21.10;;;12.40;;
1344;SDS011;15375;48.540;9.268;2023-03-01T17:16:45;22.70;;;14.50;;
1344;SDS011;15375;48.540;9.268;2023-03-01T17:19:10;19.30;;;12.83;;
1344;SDS011;15375;48.540;9.268;2023-03-01T17:21:36;19.93;;;12.90;;
1344;SDS011;15375;48.540;9.268;2023-03-01T17:24:02;21.60;;;13.57;;
1344;SDS011;15375;48.540;9.268;2023-03-01T17:26:28;23.00;;;14.63;;
1344;SDS011;15375;48.540;9.268;2023-03-01T17:28:55;24.13;;;12.90;;
1344;SDS011;15375;48.540;9.268;2023-03-01T17:31:21;19.80;;;13.90;;
1344;SDS011;15375;48.540;9.268;2023-03-01T17:33:46;20.77;;;14.20;;
1344;SDS011;15375;48.540;9.268;2023-03-01T17:36:13;26.43;;;16.90;;
1344;SDS011;15375;48.540;9.268;2023-03-01T17:38:39;26.10;;;17.47;;
1344;SDS011;15375;48.540;9.268;2023-03-01T17:41:04;23.20;;;17.00;;
1344;SDS011;15375;48.540;9.268;2023-03-01T17:43:30;21.83;;;15.50;;
1344;SDS011;15375;48.540;9.268;2023-03-01T17:45:56;24.40;;;15.93;;
1344;SDS011;15375;48.540;9.268;2023-03-01T17:48:21;27.63;;;16.40;;
1344;SDS011;15375;48.540;9.268;2023-03-01T17:50:47;21.60;;;15.57;;
1344;SDS011;15375;48.540;9.268;2023-03-01T17:53:13;21.33;;;14.07;;
1344;SDS011;15375;48.540;9.268;2023-03-01T17:55:39;22.17;;;14.67;;
1344;SDS011;15375;48.540;9.268;2023-03-01T17:58:06;20.50;;;12.80;;
1344;SDS011;15375;48.540;9.268;2023-03-01T18:00:33;23.77;;;14.80;;
1344;SDS011;15375;48.540;9.268;2023-03-01T18:02:59;24.87;;;14.83;;
1344;SDS011;15375;48.540;9.268;2023-03-01T18:05:24;20.00;;;14.33;;
1344;SDS011;15375;48.540;9.268;2023-03-01T18:07:50;20.97;;;14.23;;
1344;SDS011;15375;48.540;9.268;2023-03-01T18:10:17;41.80;;;16.43;;
1344;SDS011;15375;48.540;9.268;2023-03-01T18:12:42;22.13;;;15.47;;
1344;SDS011;15375;48.540;9.268;2023-03-01T18:15:09;18.40;;;14.10;;
1344;SDS011;15375;48.540;9.268;2023-03-01T18:17:35;18.90;;;14.93;;
1344;SDS011;15375;48.540;9.268;2023-03-01T18:20:00;22.33;;;15.60;;
1344;SDS011;15375;48.540;9.268;2023-03-01T18:22:28;22.20;;;15.50;;
1344;SDS011;15375;48.540;9.268;2023-03-01T18:24:54;24.43;;;16.40;;
1344;SDS011;15375;48.540;9.268;2023-03-01T18:27:19;27.57;;;17.60;;
1344;SDS011;15375;48.540;9.268;2023-03-01T18:29:45;24.43;;;16.07;;
1344;SDS011;15375;48.540;9.268;2023-03-01T18:32:10;24.17;;;17.73;;
1344;SDS011;15375;48.540;9.268;2023-03-01T18:34:35;27.23;;;17.50;;
1344;SDS011;15375;48.540;9.268;2023-03-01T18:37:01;26.30;;;17.60;;
1344;SDS011;15375;48.540;9.268;2023-03-01T18:39:26;33.33;;;18.67;;
1344;SDS011;15375;48.540;9.268;2023-03-01T18:41:52;24.00;;;17.03;;
1344;SDS011;15375;48.540;9.268;2023-03-01T18:44:17;21.87;;;16.47;;
1344;SDS011;15375;48.540;9.268;2023-03-01T18:46:43;23.97;;;17.03;;
1344;SDS011;15375;48.540;9.268;2023-03-01T18:49:10;26.90;;;17.50;;
1344;SDS011;15375;48.540;9.268;2023-03-01T18:51:37;24.17;;;16.33;;
1344;SDS011;15375;48.540;9.268;2023-03-01T18:54:03;25.47;;;17.37;;
1344;SDS011;15375;48.540;9.268;2023-03-01T18:56:29;28.00;;;18.07;;
1344;SDS011;15375;48.540;9.268;2023-03-01T18:58:56;24.93;;;17.37;;
1344;SDS011;15375;48.540;9.268;2023-03-01T19:01:22;29.07;;;17.40;;
1344;SDS011;15375;48.540;9.268;2023-03-01T19:03:49;24.80;;;17.07;;
1344;SDS011;15375;48.540;9.268;2023-03-01T19:06:16;24.87;;;17.80;;
1344;SDS011;15375;48.540;9.268;2023-03-01T19:08:42;25.07;;;17.00;;
1344;SDS011;15375;48.540;9.268;2023-03-01T19:11:08;25.93;;;17.90;;
1344;SDS011;15375;48.540;9.268;2023-03-01T19:13:36;24.93;;;17.30;;
1344;SDS011;15375;48.540;9.268;2023-03-01T19:16:06;28.10;;;18.63;;
1344;SDS011;15375;48.540;9.268;2023-03-01T19:18:32;25.70;;;16.50;;
1344;SDS011;15375;48.540;9.268;2023-03-01T19:20:59;22.30;;;16.73;;
1344;SDS011;15375;48.540;9.268;2023-03-01T19:23:26;26.40;;;17.80;;
1344;SDS011;15375;48.540;9.268;2023-03-01T19:26:12;27.73;;;16.77;;
1344;SDS011;15375;48.540;9.268;2023-03-01T19:28:40;24.37;;;18.23;;
1344;SDS011;15375;48.540;9.268;2023-03-01T19:31:09;28.43;;;19.37;;
1344;SDS011;15375;48.540;9.268;2023-03-01T19:33:37;26.50;;;19.20;;
1344;SDS011;15375;48.540;9.268;2023-03-01T19:36:10;29.60;;;16.40;;
1344;SDS011;15375;48.540;9.268;2023-03-01T19:38:37;30.10;;;18.43;;
1344;SDS011;15375;48.540;9.268;2023-03-01T19:41:05;29.30;;;18.60;;
1344;SDS011;15375;48.540;9.268;2023-03-01T19:43:32;25.27;;;16.80;;
1344;SDS011;15375;48.540;9.268;2023-03-01T19:45:57;24.13;;;16.77;;
1344;SDS011;15375;48.540;9.268;2023-03-01T19:48:23;26.17;;;19.13;;
1344;SDS011;15375;48.540;9.268;2023-03-01T19:50:49;25.43;;;18.03;;
1344;SDS011;15375;48.540;9.268;2023-03-01T19:53:16;26.63;;;17.93;;
1344;SDS011;15375;48.540;9.268;2023-03-01T19:55:41;24.63;;;17.30;;
1344;SDS011;15375;48.540;9.268;2023-03-01T19:58:07;27.60;;;18.57;;
1344;SDS011;15375;48.540;9.268;2023-03-01T20:00:35;27.30;;;19.57;;
1344;SDS011;15375;48.540;9.268;2023-03-01T20:03:02;31.63;;;22.30;;
1344;SDS011;15375;48.540;9.268;2023-03-01T20:05:27;39.27;;;23.57;;
1344;SDS011;15375;48.540;9.268;2023-03-01T20:07:56;36.33;;;21.80;;
1344;SDS011;15375;48.540;9.268;2023-03-01T20:10:23;45.93;;;22.50;;
1344;SDS011;15375;48.540;9.268;2023-03-01T20:12:52;32.03;;;19.13;;
1344;SDS011;15375;48.540;9.268;2023-03-01T20:15:18;31.20;;;19.17;;
1344;SDS011;15375;48.540;9.268;2023-03-01T20:17:44;35.60;;;19.00;;
1344;SDS011;15375;48.540;9.268;2023-03-01T20:20:10;31.30;;;17.57;;
1344;SDS011;15375;48.540;9.268;2023-03-01T20:22:36;27.40;;;18.67;;
1344;SDS011;15375;48.540;9.268;2023-03-01T20:25:01;25.47;;;16.67;;
1344;SDS011;15375;48.540;9.268;2023-03-01T20:27:27;26.63;;;18.47;;
1344;SDS011;15375;48.540;9.268;2023-03-01T20:29:53;29.33;;;18.13;;
1344;SDS011;15375;48.540;9.268;2023-03-01T20:32:18;30.67;;;18.47;;
1344;SDS011;15375;48.540;9.268;2023-03-01T20:34:43;27.20;;;18.13;;
1344;SDS011;15375;48.540;9.268;2023-03-01T20:37:09;27.97;;;19.07;;
1344;SDS011;15375;48.540;9.268;2023-03-01T20:39:34;25.47;;;18.13;;
1344;SDS011;15375;48.540;9.268;2023-03-01T20:42:00;30.13;;;17.27;;
1344;SDS011;15375;48.540;9.268;2023-03-01T20:44:25;26.67;;;18.03;;
1344;SDS011;15375;48.540;9.268;2023-03-01T20:46:50;29.13;;;18.40;;
1344;SDS011;15375;48.540;9.268;2023-03-01T20:49:16;27.40;;;18.50;;
1344;SDS011;15375;48.540;9.268;2023-03-01T20:51:41;25.17;;;17.30;;
1344;SDS011;15375;48.540;9.268;2023-03-01T20:54:08;25.43;;;17.00;;
1344;SDS011;15375;48.540;9.268;2023-03-01T20:56:34;28.77;;;19.63;;
1344;SDS011;15375;48.540;9.268;2023-03-01T20:59:00;36.03;;;21.17;;
1344;SDS011;15375;48.540;9.268;2023-03-01T21:01:32;27.23;;;17.77;;
1344;SDS011;15375;48.540;9.268;2023-03-01T21:03:57;30.83;;;20.00;;
1344;SDS011;15375;48.540;9.268;2023-03-01T21:06:23;32.83;;;19.17;;
1344;SDS011;15375;48.540;9.268;2023-03-01T21:08:48;30.23;;;19.70;;
1344;SDS011;15375;48.540;9.268;2023-03-01T21:11:15;30.00;;;19.37;;
1344;SDS011;15375;48.540;9.268;2023-03-01T21:13:42;30.30;;;17.73;;
1344;SDS011;15375;48.540;9.268;2023-03-01T21:16:09;32.53;;;19.07;;
1344;SDS011;15375;48.540;9.268;2023-03-01T21:18:38;31.43;;;19.67;;
1344;SDS011;15375;48.540;9.268;2023-03-01T21:21:04;25.27;;;18.50;;
1344;SDS011;15375;48.540;9.268;2023-03-01T21:23:32;22.00;;;17.07;;
1344;SDS011;15375;48.540;9.268;2023-03-01T21:26:09;27.87;;;19.20;;
1344;SDS011;15375;48.540;9.268;2023-03-01T21:28:40;33.67;;;21.03;;
1344;SDS011;15375;48.540;9.268;2023-03-01T21:31:08;37.10;;;21.07;;
1344;SDS011;15375;48.540;9.268;2023-03-01T21:33:34;29.53;;;19.80;;
1344;SDS011;15375;48.540;9.268;2023-03-01T21:36:01;28.13;;;19.03;;
1344;SDS011;15375;48.540;9.268;2023-03-01T21:38:29;34.20;;;19.70;;
1344;SDS011;15375;48.540;9.268;2023-03-01T21:41:01;32.73;;;20.93;;
1344;SDS011;15375;48.540;9.268;2023-03-01T21:43:30;31.97;;;19.17;;
1344;SDS011;15375;48.540;9.268;2023-03-01T21:45:55;35.90;;;20.67;;
1344;SDS011;15375;48.540;9.268;2023-03-01T21:48:24;28.37;;;18.43;;
1344;SDS011;15375;48.540;9.268;2023-03-01T21:50:53;32.17;;;19.97;;
1344;SDS011;15375;48.540;9.268;2023-03-01T21:53:21;31.40;;;19.87;;
1344;SDS011;15375;48.540;9.268;2023-03-01T21:55:47;32.90;;;19.57;;
1344;SDS011;15375;48.540;9.268;2023-03-01T21:58:13;34.20;;;20.73;;
1344;SDS011;15375;48.540;9.268;2023-03-01T22:00:38;31.17;;;20.30;;
1344;SDS011;15375;48.540;9.268;2023-03-01T22:03:04;29.07;;;20.30;;
1344;SDS011;15375;48.540;9.268;2023-03-01T22:05:29;32.50;;;20.73;;
1344;SDS011;15375;48.540;9.268;2023-03-01T22:07:54;35.67;;;19.80;;
1344;SDS011;15375;48.540;9.268;2023-03-01T22:10:20;35.33;;;21.50;;
1344;SDS011;15375;48.540;9.268;2023-03-01T22:12:54;33.90;;;19.80;;
1344;SDS011;15375;48.540;9.268;2023-03-01T22:15:21;28.80;;;18.30;;
1344;SDS011;15375;48.540;9.268;2023-03-01T22:17:47;31.73;;;20.63;;
1344;SDS011;15375;48.540;9.268;2023-03-01T22:20:16;36.40;;;21.67;;
1344;SDS011;15375;48.540;9.268;2023-03-01T22:22:42;34.37;;;21.70;;
1344;SDS011;15375;48.540;9.268;2023-03-01T22:25:08;34.90;;;21.90;;
1344;SDS011;15375;48.540;9.268;2023-03-01T22:27:35;34.67;;;20.03;;
1344;SDS011;15375;48.540;9.268;2023-03-01T22:30:05;36.37;;;21.83;;
1344;SDS011;15375;48.540;9.268;2023-03-01T22:32:32;37.57;;;19.90;;
1344;SDS011;15375;48.540;9.268;2023-03-01T22:34:57;32.73;;;20.27;;
1344;SDS011;15375;48.540;9.268;2023-03-01T22:37:23;33.97;;;19.70;;
1344;SDS011;15375;48.540;9.268;2023-03-01T22:39:48;33.93;;;20.17;;
1344;SDS011;15375;48.540;9.268;2023-03-01T22:42:13;34.00;;;21.20;;
1344;SDS011;15375;48.540;9.268;2023-03-01T22:44:39;30.50;;;19.70;;
1344;SDS011;15375;48.540;9.268;2023-03-01T22:47:05;32.27;;;20.63;;
1344;SDS011;15375;48.540;9.268;2023-03-01T22:49:31;38.07;;;21.73;;
1344;SDS011;15375;48.540;9.268;2023-03-01T22:51:56;35.60;;;22.60;;
1344;SDS011;15375;48.540;9.268;2023-03-01T22:54:22;33.93;;;20.37;;
1344;SDS011;15375;48.540;9.268;2023-03-01T22:56:47;36.47;;;20.70;;
1344;SDS011;15375;48.540;9.268;2023-03-01T22:59:14;32.17;;;20.37;;
1344;SDS011;15375;48.540;9.268;2023-03-01T23:01:47;33.53;;;21.00;;
1344;SDS011;15375;48.540;9.268;2023-03-01T23:04:13;29.30;;;19.87;;
1344;SDS011;15375;48.540;9.268;2023-03-01T23:06:39;29.23;;;20.73;;
1344;SDS011;15375;48.540;9.268;2023-03-01T23:09:14;35.53;;;20.30;;
1344;SDS011;15375;48.540;9.268;2023-03-01T23:11:44;35.50;;;22.13;;
1344;SDS011;15375;48.540;9.268;2023-03-01T23:14:09;33.00;;;21.60;;
1344;SDS011;15375;48.540;9.268;2023-03-01T23:16:35;31.17;;;20.30;;
1344;SDS011;15375;48.540;9.268;2023-03-01T23:19:00;31.27;;;20.53;;
1344;SDS011;15375;48.540;9.268;2023-03-01T23:21:26;33.27;;;21.47;;
1344;SDS011;15375;48.540;9.268;2023-03-01T23:23:52;35.90;;;20.67;;
1344;SDS011;15375;48.540;9.268;2023-03-01T23:26:19;36.90;;;22.37;;
1344;SDS011;15375;48.540;9.268;2023-03-01T23:28:46;33.80;;;20.97;;
1344;SDS011;15375;48.540;9.268;2023-03-01T23:31:13;33.47;;;20.90;;
1344;SDS011;15375;48.540;9.268;2023-03-01T23:33:40;31.67;;;20.63;;
1344;SDS011;15375;48.540;9.268;2023-03-01T23:36:13;32.63;;;20.20;;
1344;SDS011;15375;48.540;9.268;2023-03-01T23:38:44;31.07;;;20.47;;
1344;SDS011;15375;48.540;9.268;2023-03-01T23:41:15;34.33;;;21.60;;
1344;SDS011;15375;48.540;9.268;2023-03-01T23:43:45;37.77;;;21.50;;
1344;SDS011;15375;48.540;9.268;2023-03-01T23:46:12;32.80;;;21.27;;
1344;SDS011;15375;48.540;9.268;2023-03-01T23:48:39;32.67;;;21.10;;
1344;SDS011;15375;48.540;9.268;2023-03-01T23:51:06;35.10;;;21.97;;
1344;SDS011;15375;48.540;9.268;2023-03-01T23:53:32;35.70;;;21.23;;
1344;SDS011;15375;48.540;9.268;2023-03-01T23:56:00;37.50;;;21.13;;
1344;SDS011;15375;48.540;9.268;2023-03-01T23:58:25;38.90;;;22.80;;
